Flight Track Log - Related Links

Times and Time Zones

All times are in EDT time to prevent confusion due to time zone crossing. See the N779NC flight status page for this flight to view local times or setup timezone preferences in your user account.

Time Position Orientation Groundspeed Altitude Reporting Facility
EDT Latitude Longitude Course Direction KTS MPH feet Rate Location/Type
Thu 08:46:57 AM 33.3267 -82.0100 337° Northwest 352 405 2,100  Level Atlanta Center
Thu 08:47:57 AM 33.3194 -82.0775 263° West 280 322 3,800 1,850 Climbing Atlanta Center
Thu 08:48:57 AM 33.3122 -82.1572 264° West 256 295 5,800 2,000 Climbing Atlanta Center
Thu 08:49:57 AM 33.3053 -82.2392 264° West 256 295 7,800 2,100 Climbing Atlanta Center
Thu 08:50:00 AM 33.6791 -82.1396 337° Northwest  Level FlightAware Approximate
Thu 08:50:57 AM 33.3044 -82.3314 269° West 261 300 10,000  Level Atlanta Center
Thu 08:51:57 AM 33.2994 -82.4283 266° West 277 319 11,100 1,250 Climbing Atlanta Center
Thu 08:52:57 AM 33.2903 -82.5403 264° West 316 364 12,500 1,500 Climbing Atlanta Center
Thu 08:53:57 AM 33.2897 -82.6572 270° West 341 392 14,100 1,550 Climbing Atlanta Center
Thu 08:54:57 AM 33.2867 -82.7764 268° West 356 410 15,600 1,500 Climbing Atlanta Center
Thu 08:55:57 AM 33.2839 -82.9033 269° West 377 434 17,100 1,500 Climbing Atlanta Center
Thu 08:56:57 AM 33.2786 -83.0325 267° West 391 450 18,600 1,500 Climbing Atlanta Center
Thu 08:57:57 AM 33.2650 -83.1619 263° West 398 458 20,100 1,050 Climbing Atlanta Center
Thu 08:58:57 AM 33.2533 -83.2961 264° West 406 467 20,700 -400 Climbing Atlanta Center
Thu 08:59:57 AM 33.2417 -83.4153 263° West 412 474 19,300 -1,900 Descending Atlanta Center
Thu 09:00:57 AM 33.2297 -83.5497 264° West 412 474 16,900 -2,800 Descending Atlanta Center
Thu 09:01:27 AM 33.2333 -83.6333 273° West 395 455 15,100 -2,500 Descending Atlanta TRACON
Thu 09:02:33 AM 33.2500 -83.7500 280° West 346 398 12,900 -1,097 Descending Atlanta TRACON
Thu 09:04:33 AM 33.3667 -83.8833 316° Northwest 299 344 11,700 -767 Descending Atlanta TRACON
Thu 09:05:33 AM 33.4000 -83.9500 301° West 241 277 10,600 -1,211 Descending Atlanta TRACON
Thu 09:06:27 AM 33.4500 -83.9667 344° North 232 267 9,400 -1,357 Descending Atlanta TRACON
Thu 09:06:57 AM 33.4769 -83.9617 North 174 200 8,700 -933 Descending Atlanta Center
Thu 09:07:57 AM 33.5353 -83.9367 20° North 184 212 8,000 -300 Descending Atlanta Center
Thu 09:08:57 AM 33.5897 -83.9317 North 201 231 8,100 -500 Climbing Atlanta Center
Thu 09:09:57 AM 33.6272 -83.9614 327° Northwest 160 184 7,000 -500 Descending Atlanta Center
Thu 09:10:57 AM 33.6294 -84.0139 273° West 145 167 7,100 -462 Climbing Atlanta Center
Thu 09:12:33 AM 33.6333 -84.1000 273° West 169 194 5,800 -808 Descending Atlanta TRACON
Thu 09:13:33 AM 33.6333 -84.1500 270° West 156 180 5,000 -842 Descending Atlanta TRACON
Thu 09:14:27 AM 33.6333 -84.2000 270° West 153 176 4,200 -889 Descending Atlanta TRACON

Login

Don't have an account? Register now (free) for customized features, flight alerts, and more!